Warrington, Indiana
Current Conditions -  °F | °C
As of 1:34 AM on Saturday 25 Oct 2014 (Local Time) from KMQJ Reporting Station
Clear Clear  
Wind Chill:   Ceiling: Unl
Heat Index:   Visibility: 5mi
Dew Point:   Wind: 3mph
Humidity: 100%   Direction: 180°S
Pressure: 30.01"   Gusts: NA
Location:  39.9098°N, 85.6325°W
Report Text: KMQJ 250534Z AUTO 18003KT 5SM CLR 09/09 A3001 RMK AO1
Loading
Personal Weather Stations






























Interactive Weather Map
Tropical Storm Tracking
New forecast layout! Learn more

10-Day Weather Forecast

Advertisements
Track Severe Weather on mobile